Time;durP1;ratioP1;P1;durP2;ratioP2;P2;SDS_P1;SDS_P2;PMS_P1;PMS_P2;Temp;Humidity;BMP_temperature;BMP_pressure;BME280_temperature;BME280_humidity;BME280_pressure;Samples;Min_cycle;Max_cycle;Signal;HPM_P1;HPM_P2
2021/07/29 00:00:35;;;;;;;3.35;2.28;;;19.80;61.80;;;;;;5158332;27;27388;-55
2021/07/29 00:03:20;;;;;;;4.00;2.35;;;19.70;61.80;;;;;;5155173;27;27410;-54
2021/07/29 00:06:06;;;;;;;3.13;1.90;;;19.70;61.90;;;;;;5140800;27;27336;-51
2021/07/29 00:08:52;;;;;;;3.80;2.20;;;19.70;61.90;;;;;;5158790;27;27477;-57
2021/07/29 00:11:36;;;;;;;3.95;2.50;;;19.70;62.00;;;;;;5188934;27;27446;-57
2021/07/29 00:14:21;;;;;;;2.60;2.20;;;19.60;61.80;;;;;;5158667;27;27470;-48
2021/07/29 00:17:16;;;;;;;3.97;2.28;;;19.60;61.90;;;;;;5155275;27;27488;-57
2021/07/29 00:20:02;;;;;;;2.78;1.90;;;19.50;61.80;;;;;;5154867;27;27885;-56
2021/07/29 00:22:49;;;;;;;8.20;2.20;;;19.50;62.00;;;;;;5154676;27;27465;-56
2021/07/29 00:25:33;;;;;;;4.00;2.30;;;19.50;62.20;;;;;;5154500;27;27408;-57
2021/07/29 00:28:18;;;;;;;2.17;1.98;;;19.40;62.20;;;;;;5171190;27;27578;-55
2021/07/29 00:31:03;;;;;;;2.92;2.55;;;19.40;62.30;;;;;;5172943;27;27825;-51
2021/07/29 00:33:48;;;;;;;2.95;2.15;;;19.30;62.40;;;;;;5158205;27;27514;-56
2021/07/29 00:36:32;;;;;;;4.90;2.67;;;19.30;62.50;;;;;;5143093;27;27476;-56
2021/07/29 00:39:17;;;;;;;2.70;2.50;;;19.30;62.60;;;;;;5187568;27;27414;-56
2021/07/29 00:42:03;;;;;;;2.10;1.88;;;19.30;62.80;;;;;;5139538;27;27484;-57
2021/07/29 00:44:48;;;;;;;3.00;2.33;;;19.20;62.90;;;;;;5172379;27;27486;-55
2021/07/29 00:47:32;;;;;;;2.33;2.00;;;19.20;62.90;;;;;;5173080;27;27441;-56
2021/07/29 00:50:17;;;;;;;4.85;2.35;;;19.20;63.90;;;;;;5154121;27;27465;-55
2021/07/29 00:53:02;;;;;;;2.90;2.38;;;19.10;63.00;;;;;;5157510;27;27810;-56
2021/07/29 00:55:47;;;;;;;2.60;2.35;;;19.10;63.00;;;;;;5187922;27;27434;-56
2021/07/29 00:58:31;;;;;;;2.90;1.83;;;19.10;63.10;;;;;;5172077;27;27422;-56
2021/07/29 01:01:16;;;;;;;3.70;2.28;;;19.10;63.20;;;;;;5143184;27;27498;-56
2021/07/29 01:04:01;;;;;;;2.58;2.38;;;19.00;63.20;;;;;;5187806;27;27405;-51
2021/07/29 01:06:45;;;;;;;6.57;2.75;;;19.00;63.40;;;;;;5142110;27;27516;-56
2021/07/29 01:09:30;;;;;;;4.30;3.28;;;19.00;63.40;;;;;;5157533;27;27410;-55
2021/07/29 01:12:15;;;;;;;5.00;2.25;;;18.90;63.40;;;;;;5171839;27;27403;-56
2021/07/29 01:14:59;;;;;;;3.50;2.55;;;18.90;63.40;;;;;;5157682;27;27347;-57
2021/07/29 01:17:44;;;;;;;3.10;2.20;;;18.90;63.50;;;;;;5139206;27;27402;-55
2021/07/29 01:20:30;;;;;;;6.85;2.70;;;18.90;63.70;;;;;;5172213;27;27356;-57
2021/07/29 01:23:14;;;;;;;5.85;2.20;;;18.80;63.60;;;;;;5157500;27;27426;-57
2021/07/29 01:25:59;;;;;;;4.78;2.60;;;18.80;63.70;;;;;;5171705;27;27956;-56
2021/07/29 01:28:43;;;;;;;4.93;2.53;;;18.80;63.80;;;;;;5156457;27;27724;-57
2021/07/29 01:31:28;;;;;;;2.90;2.47;;;18.70;63.80;;;;;;5183930;27;27322;-55
2021/07/29 01:34:13;;;;;;;7.90;2.88;;;18.70;63.80;;;;;;5187241;27;27417;-56
2021/07/29 01:36:58;;;;;;;3.65;2.15;;;18.70;63.80;;;;;;5171659;27;27387;-57
2021/07/29 01:39:42;;;;;;;4.75;2.78;;;18.70;63.80;;;;;;5124501;27;27333;-57
2021/07/29 01:42:27;;;;;;;4.43;2.42;;;18.60;63.90;;;;;;5153092;27;27335;-58
2021/07/29 01:45:12;;;;;;;3.25;2.35;;;18.60;64.10;;;;;;5171133;27;27346;-57
2021/07/29 01:47:57;;;;;;;4.72;2.60;;;18.60;64.20;;;;;;5171403;27;27864;-57
2021/07/29 01:50:43;;;;;;;3.92;2.70;;;18.60;64.20;;;;;;5183709;27;27325;-57
2021/07/29 01:53:28;;;;;;;5.22;2.47;;;18.50;64.20;;;;;;5168146;27;27319;-57
2021/07/29 01:56:12;;;;;;;11.80;2.45;;;18.50;64.20;;;;;;5171561;27;27349;-57
2021/07/29 01:58:57;;;;;;;5.28;2.53;;;18.50;64.30;;;;;;5138767;27;27343;-49
2021/07/29 02:01:42;;;;;;;5.45;2.28;;;18.50;64.40;;;;;;5154156;27;27378;-58
2021/07/29 02:04:26;;;;;;;4.93;2.67;;;18.50;64.40;;;;;;5171221;27;27340;-56
2021/07/29 02:07:11;;;;;;;4.18;2.47;;;18.40;64.40;;;;;;5138664;27;27391;-48
2021/07/29 02:09:55;;;;;;;3.33;2.78;;;18.40;64.50;;;;;;5167842;27;27374;-56
2021/07/29 02:12:40;;;;;;;5.75;2.53;;;18.40;64.50;;;;;;5167797;27;27372;-57
2021/07/29 02:15:25;;;;;;;4.65;2.13;;;18.30;64.50;;;;;;5124199;27;27438;-56
2021/07/29 02:18:10;;;;;;;6.13;2.88;;;18.30;64.50;;;;;;5167613;27;27424;-56
2021/07/29 02:20:54;;;;;;;2.85;2.55;;;18.30;64.60;;;;;;5156312;27;27467;-57
2021/07/29 02:23:39;;;;;;;4.85;2.47;;;18.30;64.70;;;;;;5186473;27;27539;-55
2021/07/29 02:26:24;;;;;;;5.07;2.70;;;18.20;64.80;;;;;;5170773;27;27576;-56
2021/07/29 02:29:09;;;;;;;5.78;2.67;;;18.20;64.80;;;;;;5170637;27;27655;-56
2021/07/29 02:31:53;;;;;;;3.75;2.80;;;18.20;64.80;;;;;;5152693;27;27556;-55
2021/07/29 02:34:38;;;;;;;5.57;2.28;;;18.20;64.80;;;;;;5123599;27;27581;-57
2021/07/29 02:37:23;;;;;;;7.00;2.67;;;18.20;64.90;;;;;;5156023;27;27413;-56
2021/07/29 02:40:08;;;;;;;4.82;2.35;;;18.20;65.00;;;;;;5155872;27;27536;-56
2021/07/29 02:42:53;;;;;;;4.35;3.15;;;18.10;64.90;;;;;;5170721;27;27450;-54
2021/07/29 02:45:37;;;;;;;8.07;2.30;;;18.10;65.00;;;;;;5155514;27;27488;-54
2021/07/29 02:48:21;;;;;;;5.05;2.55;;;18.10;65.10;;;;;;5155888;27;27489;-56
2021/07/29 02:51:06;;;;;;;3.38;2.38;;;18.10;65.10;;;;;;5176146;27;27446;-56
2021/07/29 02:53:51;;;;;;;5.25;2.35;;;18.00;65.10;;;;;;5173681;27;27418;-55
2021/07/29 02:56:35;;;;;;;4.32;2.88;;;18.00;65.20;;;;;;5189661;27;27347;-56
2021/07/29 02:59:20;;;;;;;8.65;2.45;;;18.00;65.20;;;;;;5174284;27;27392;-46
2021/07/29 03:02:05;;;;;;;6.85;2.40;;;18.00;65.30;;;;;;5189975;27;27369;-55
2021/07/29 03:04:49;;;;;;;2.88;2.58;;;17.90;65.40;;;;;;5189940;27;27408;-55
2021/07/29 03:07:34;;;;;;;4.85;2.70;;;17.90;65.40;;;;;;5159152;27;27423;-56
2021/07/29 03:10:18;;;;;;;6.88;2.78;;;17.90;65.50;;;;;;5144612;27;27351;-56
2021/07/29 03:13:04;;;;;;;6.63;2.47;;;17.90;65.50;;;;;;5159095;27;27383;-53
2021/07/29 03:15:50;;;;;;;5.28;2.97;;;17.90;65.50;;;;;;5158753;27;27402;-56
2021/07/29 03:18:34;;;;;;;6.40;2.65;;;17.80;65.40;;;;;;5159114;27;27384;-56
2021/07/29 03:21:19;;;;;;;4.50;2.33;;;17.80;65.60;;;;;;5142809;27;27412;-56
2021/07/29 03:24:04;;;;;;;5.40;2.67;;;17.80;65.60;;;;;;5159192;27;27373;-54
2021/07/29 03:26:48;;;;;;;6.10;2.95;;;17.80;65.60;;;;;;5170355;27;27868;-56
2021/07/29 03:29:33;;;;;;;6.53;2.80;;;17.80;65.70;;;;;;5155593;27;27359;-55
2021/07/29 03:32:17;;;;;;;5.55;3.00;;;17.70;65.60;;;;;;5155378;27;27428;-52
2021/07/29 03:35:02;;;;;;;6.35;3.22;;;17.70;65.60;;;;;;5189089;27;27323;-56
2021/07/29 03:37:47;;;;;;;6.18;3.03;;;17.70;65.70;;;;;;5140678;27;27332;-56
2021/07/29 03:40:32;;;;;;;6.43;3.08;;;17.70;65.70;;;;;;5173329;27;27413;-54
2021/07/29 03:43:16;;;;;;;4.63;2.38;;;17.60;65.80;;;;;;5189492;27;27362;-56
2021/07/29 03:46:01;;;;;;;6.80;2.67;;;17.60;65.90;;;;;;5158191;27;27441;-56
2021/07/29 03:48:45;;;;;;;9.05;2.75;;;17.60;66.00;;;;;;5171054;27;27423;-55
2021/07/29 03:51:30;;;;;;;6.22;2.50;;;17.60;66.10;;;;;;5169956;27;27436;-56
2021/07/29 03:54:14;;;;;;;4.85;2.60;;;17.60;66.00;;;;;;5189236;27;27409;-43
2021/07/29 03:56:59;;;;;;;6.55;2.70;;;17.60;66.10;;;;;;5169468;27;27472;-56
2021/07/29 03:59:44;;;;;;;5.30;2.95;;;17.50;66.10;;;;;;5126423;27;28008;-56
2021/07/29 04:02:28;;;;;;;5.93;2.60;;;17.50;66.20;;;;;;5155172;27;27470;-56
2021/07/29 04:05:13;;;;;;;9.43;3.00;;;17.50;66.30;;;;;;5157439;27;27429;-53
2021/07/29 04:07:57;;;;;;;5.03;2.50;;;17.50;66.30;;;;;;5154798;27;27488;-56
2021/07/29 04:10:42;;;;;;;8.05;2.65;;;17.50;66.30;;;;;;5154732;27;27439;-55
2021/07/29 04:13:27;;;;;;;5.50;2.70;;;17.50;66.30;;;;;;5143398;27;27447;-56
2021/07/29 04:16:12;;;;;;;6.47;3.28;;;17.50;66.40;;;;;;5142982;27;27484;-54
2021/07/29 04:18:57;;;;;;;7.43;2.70;;;17.50;66.60;;;;;;5169139;27;27434;-56
2021/07/29 04:21:41;;;;;;;3.83;2.88;;;17.50;66.80;;;;;;5173373;27;28035;-55
2021/07/29 04:24:28;;;;;;;4.88;2.72;;;17.50;67.00;;;;;;5169280;27;27507;-56
2021/07/29 04:27:13;;;;;;;5.10;2.90;;;17.40;67.00;;;;;;5155252;27;27576;-56
2021/07/29 04:29:57;;;;;;;4.97;3.17;;;17.50;67.40;;;;;;5172224;27;27492;-56
2021/07/29 04:32:42;;;;;;;8.60;2.72;;;17.50;67.40;;;;;;5139671;27;27394;-55
2021/07/29 04:35:26;;;;;;;6.97;2.95;;;17.50;67.70;;;;;;5157966;27;27454;-56
2021/07/29 04:38:11;;;;;;;7.53;3.17;;;17.50;67.80;;;;;;5157690;27;27493;-51
2021/07/29 04:41:04;;;;;;;4.85;2.95;;;17.50;68.00;;;;;;5143085;27;27405;-54
2021/07/29 04:43:49;;;;;;;8.55;2.95;;;17.50;68.00;;;;;;5171999;27;27406;-56
2021/07/29 04:46:37;;;;;;;9.00;5.10;;;17.60;68.10;;;;;;5172505;27;27573;-56
2021/07/29 04:49:23;;;;;;;4.47;3.05;;;17.60;68.20;;;;;;5154228;27;26905;-56
2021/07/29 04:52:08;;;;;;;8.75;3.50;;;17.70;68.20;;;;;;5172417;27;27422;-56
2021/07/29 04:54:52;;;;;;;3.00;2.65;;;17.70;68.30;;;;;;5157194;27;27451;-56
2021/07/29 04:57:37;;;;;;;6.20;3.30;;;17.80;68.40;;;;;;5187960;27;27511;-54
2021/07/29 05:00:22;;;;;;;6.03;3.05;;;17.80;68.40;;;;;;5143101;27;27515;-44
2021/07/29 05:03:07;;;;;;;8.50;3.20;;;17.90;68.70;;;;;;5168772;27;27570;-56
2021/07/29 05:05:51;;;;;;;8.52;3.55;;;17.90;68.50;;;;;;5153467;27;27941;-56
2021/07/29 05:08:35;;;;;;;6.20;3.03;;;18.00;68.70;;;;;;5168811;27;27355;-56
2021/07/29 05:11:20;;;;;;;6.53;2.90;;;18.00;68.60;;;;;;5171549;27;27393;-49
2021/07/29 05:14:05;;;;;;;5.95;2.75;;;18.10;68.70;;;;;;5153628;27;27348;-56
2021/07/29 05:16:49;;;;;;;5.32;3.00;;;18.20;68.80;;;;;;5170647;27;27876;-56
2021/07/29 05:19:34;;;;;;;8.43;3.00;;;18.30;69.00;;;;;;5187714;27;27442;-53
2021/07/29 05:22:19;;;;;;;9.57;2.90;;;18.40;68.80;;;;;;5139587;27;27309;-56
2021/07/29 05:25:04;;;;;;;7.72;3.40;;;18.50;68.50;;;;;;5153239;27;27324;-55
2021/07/29 05:27:50;;;;;;;5.45;3.10;;;18.60;68.80;;;;;;5156132;27;27351;-54
2021/07/29 05:30:35;;;;;;;5.80;3.22;;;18.70;68.70;;;;;;5187297;27;27404;-55
2021/07/29 05:33:20;;;;;;;6.25;3.50;;;18.70;68.50;;;;;;5183953;27;27324;-57
2021/07/29 05:36:05;;;;;;;9.02;2.97;;;18.90;68.40;;;;;;5171340;27;27392;-56
2021/07/29 05:38:50;;;;;;;6.18;3.40;;;19.00;68.40;;;;;;5171163;27;27391;-57
2021/07/29 05:41:35;;;;;;;9.10;4.03;;;19.10;68.20;;;;;;5153214;27;27360;-57
2021/07/29 05:44:19;;;;;;;5.57;3.25;;;19.10;68.10;;;;;;5173065;27;27347;-45
2021/07/29 05:47:04;;;;;;;4.85;3.33;;;19.20;67.80;;;;;;5153544;27;27322;-45
2021/07/29 05:49:49;;;;;;;10.27;3.10;;;19.30;67.60;;;;;;5153498;27;28005;-56
2021/07/29 05:52:33;;;;;;;5.05;3.25;;;19.40;67.40;;;;;;5172054;27;27417;-56
2021/07/29 05:55:18;;;;;;;6.50;3.10;;;19.40;67.20;;;;;;5153193;27;27414;-56
2021/07/29 05:58:03;;;;;;;6.35;2.97;;;19.50;67.00;;;;;;5131524;27;27316;-56
2021/07/29 06:00:48;;;;;;;7.35;3.20;;;19.50;66.90;;;;;;5123869;27;27825;-56
2021/07/29 06:03:34;;;;;;;3.47;2.83;;;19.50;66.80;;;;;;5153766;27;27384;-57
2021/07/29 06:06:19;;;;;;;3.50;3.00;;;19.60;66.90;;;;;;5152923;27;27359;-56
2021/07/29 06:09:03;;;;;;;4.78;3.45;;;19.70;66.90;;;;;;5157625;27;27416;-56
2021/07/29 06:11:48;;;;;;;3.58;2.95;;;19.70;66.70;;;;;;5124944;27;27333;-57
2021/07/29 06:14:33;;;;;;;5.50;3.13;;;19.80;66.70;;;;;;5172190;27;27409;-57
2021/07/29 06:17:22;;;;;;;5.97;3.15;;;20.00;66.80;;;;;;5139485;27;27379;-56
2021/07/29 06:20:08;;;;;;;4.50;2.67;;;20.10;66.60;;;;;;5173070;27;27430;-54
2021/07/29 06:22:52;;;;;;;4.03;2.60;;;20.30;65.90;;;;;;5168425;27;27855;-57
2021/07/29 06:25:40;;;;;;;5.45;2.85;;;20.60;65.40;;;;;;5187627;27;27401;-56
2021/07/29 06:28:31;;;;;;;6.15;3.10;;;20.90;64.70;;;;;;5189631;27;27050;-57
2021/07/29 06:31:16;;;;;;;5.28;3.15;;;21.30;64.00;;;;;;5162533;27;27639;-56
2021/07/29 06:34:01;;;;;;;5.88;2.67;;;21.50;63.90;;;;;;5157608;27;27354;-57
2021/07/29 06:36:48;;;;;;;5.00;2.63;;;21.90;63.70;;;;;;5175988;27;27435;-56
2021/07/29 06:39:32;;;;;;;5.97;3.08;;;22.20;63.20;;;;;;5157544;27;27512;-57
2021/07/29 06:42:17;;;;;;;4.40;2.60;;;22.60;62.70;;;;;;5160437;27;27398;-57
2021/07/29 06:45:02;;;;;;;4.60;3.25;;;23.00;62.20;;;;;;5156844;27;27883;-56
2021/07/29 06:47:46;;;;;;;3.40;2.67;;;23.30;61.20;;;;;;5175311;27;27536;-56
2021/07/29 06:50:31;;;;;;;5.28;2.97;;;23.70;60.60;;;;;;5190999;27;27511;-57
2021/07/29 06:53:15;;;;;;;6.28;3.10;;;24.10;59.70;;;;;;5172072;27;27353;-54
2021/07/29 06:56:17;;;;;;;7.32;3.00;;;24.50;59.00;;;;;;5143692;27;27159;-46
2021/07/29 06:59:02;;;;;;;15.85;4.38;;;25.00;58.20;;;;;;5175676;27;27393;-57
2021/07/29 07:01:47;;;;;;;3.33;2.83;;;25.30;57.60;;;;;;5142899;27;27318;-57
2021/07/29 07:04:31;;;;;;;2.85;2.65;;;25.70;57.10;;;;;;5160727;27;27339;-57
2021/07/29 07:07:17;;;;;;;2.90;2.50;;;26.10;56.50;;;;;;5157467;27;27410;-57
2021/07/29 07:10:01;;;;;;;4.05;2.78;;;26.50;55.70;;;;;;5146346;27;27395;-45
2021/07/29 07:12:46;;;;;;;5.05;2.78;;;27.00;55.20;;;;;;5190748;27;27456;-57
2021/07/29 07:15:31;;;;;;;4.88;2.78;;;27.40;54.30;;;;;;5156974;27;27417;-57
2021/07/29 07:18:16;;;;;;;3.83;2.20;;;27.80;53.50;;;;;;5156903;27;27857;-57
2021/07/29 07:21:08;;;;;;;5.85;2.83;;;28.30;52.60;;;;;;5174807;27;27449;-57
2021/07/29 07:23:52;;;;;;;2.75;2.45;;;28.60;51.70;;;;;;5159826;27;27423;-57
2021/07/29 07:26:37;;;;;;;4.25;2.67;;;29.10;51.30;;;;;;5159304;27;27479;-52
2021/07/29 07:29:22;;;;;;;4.35;2.83;;;29.60;50.40;;;;;;5156430;27;27443;-56
2021/07/29 07:32:07;;;;;;;6.55;2.58;;;30.00;49.80;;;;;;5156694;27;27452;-57
2021/07/29 07:34:52;;;;;;;3.58;2.22;;;30.40;49.00;;;;;;5174749;27;27487;-56
2021/07/29 07:37:39;;;;;;;3.90;2.45;;;30.70;48.40;;;;;;5174643;27;27466;-56
2021/07/29 07:40:24;;;;;;;3.22;2.92;;;30.80;48.00;;;;;;5189417;27;28084;-57
2021/07/29 07:43:09;;;;;;;3.72;1.88;;;30.80;47.00;;;;;;5190357;27;27421;-58
2021/07/29 07:45:54;;;;;;;3.55;2.60;;;30.90;46.70;;;;;;5174440;27;27654;-59
2021/07/29 07:48:39;;;;;;;2.65;2.15;;;30.90;46.10;;;;;;5189615;27;27394;-57
2021/07/29 07:51:24;;;;;;;2.40;1.92;;;31.00;45.80;;;;;;5190154;27;27460;-57
2021/07/29 07:54:08;;;;;;;7.43;2.58;;;31.00;46.30;;;;;;5171160;27;27411;-57
2021/07/29 07:56:54;;;;;;;2.45;2.10;;;30.90;46.00;;;;;;5170878;27;27406;-57
2021/07/29 07:59:39;;;;;;;4.45;2.30;;;30.80;46.40;;;;;;5189742;27;27469;-57
2021/07/29 08:02:25;;;;;;;3.38;2.45;;;30.80;46.40;;;;;;5170621;27;27406;-56
2021/07/29 08:05:10;;;;;;;3.90;2.70;;;31.10;45.60;;;;;;5144945;27;27466;-57
2021/07/29 08:07:57;;;;;;;2.33;2.13;;;31.20;45.20;;;;;;5142254;27;27450;-44
2021/07/29 08:10:41;;;;;;;5.55;2.58;;;31.30;45.20;;;;;;5156693;27;27327;-52
2021/07/29 08:13:26;;;;;;;2.90;2.58;;;31.30;44.70;;;;;;5174139;27;27413;-57
2021/07/29 08:16:11;;;;;;;2.90;1.83;;;31.30;45.00;;;;;;5173886;27;27387;-57
2021/07/29 08:18:56;;;;;;;3.75;2.45;;;31.40;45.00;;;;;;5174152;27;27481;-56
2021/07/29 08:21:41;;;;;;;4.30;2.67;;;31.50;45.50;;;;;;5155985;27;27469;-57
2021/07/29 08:24:26;;;;;;;2.97;2.55;;;31.60;44.00;;;;;;5185904;27;27425;-56
2021/07/29 08:27:11;;;;;;;3.97;2.90;;;31.70;43.90;;;;;;5158902;27;27508;-57
2021/07/29 08:29:56;;;;;;;4.00;2.40;;;31.90;43.20;;;;;;5174712;27;27431;-55
2021/07/29 08:32:42;;;;;;;4.63;2.30;;;32.00;42.00;;;;;;5144535;27;27531;-57
2021/07/29 08:35:27;;;;;;;2.40;2.08;;;32.20;42.50;;;;;;5190207;27;27433;-52
2021/07/29 08:38:12;;;;;;;3.05;2.75;;;32.30;42.30;;;;;;5155319;27;27399;-58
2021/07/29 08:40:56;;;;;;;4.57;3.00;;;32.50;40.90;;;;;;5173571;27;27389;-55
2021/07/29 08:43:41;;;;;;;2.72;2.33;;;32.60;41.40;;;;;;5174018;27;27413;-56
2021/07/29 08:46:26;;;;;;;3.08;2.53;;;32.80;42.00;;;;;;5155317;27;27406;-46
2021/07/29 08:49:11;;;;;;;3.92;3.08;;;33.10;40.90;;;;;;5144328;27;27414;-56
2021/07/29 08:51:56;;;;;;;3.33;2.60;;;33.40;40.80;;;;;;5158958;27;27465;-58
2021/07/29 08:54:40;;;;;;;3.45;2.20;;;34.00;39.70;;;;;;5155012;27;27457;-57
2021/07/29 08:57:29;;;;;;;3.80;2.65;;;34.70;39.40;;;;;;5188864;27;27492;-55
2021/07/29 09:00:14;;;;;;;3.75;2.42;;;35.40;38.50;;;;;;5155250;27;27583;-57
2021/07/29 09:03:18;;;;;;;6.25;2.53;;;36.10;37.60;;;;;;5158601;27;27395;-57
2021/07/29 09:06:10;;;;;;;4.30;2.53;;;36.80;36.80;;;;;;5188471;27;27420;-57
2021/07/29 09:08:55;;;;;;;2.92;2.45;;;37.10;35.40;;;;;;5126412;27;27463;-57
2021/07/29 09:11:39;;;;;;;2.58;2.38;;;37.30;34.50;;;;;;5172783;27;27453;-56
2021/07/29 09:14:24;;;;;;;2.90;2.50;;;37.60;33.20;;;;;;5188679;27;27441;-56
2021/07/29 09:17:09;;;;;;;3.40;2.53;;;37.70;33.30;;;;;;5173189;27;27417;-57
2021/07/29 09:19:56;;;;;;;4.85;2.33;;;37.90;33.40;;;;;;5169357;27;27464;-57
2021/07/29 09:22:41;;;;;;;2.60;2.40;;;38.20;32.70;;;;;;5158805;27;27483;-56
2021/07/29 09:25:29;;;;;;;4.68;2.47;;;38.20;32.20;;;;;;5173138;27;27464;-56
2021/07/29 09:28:51;;;;;;;3.08;2.33;;;38.10;32.40;;;;;;5172238;27;27404;-55
2021/07/29 09:31:36;;;;;;;2.28;2.08;;;37.60;32.20;;;;;;5053798;28;27506;-56
2021/07/29 09:34:21;;;;;;;3.28;2.50;;;37.20;32.10;;;;;;5083491;28;27375;-56
2021/07/29 09:37:07;;;;;;;3.25;2.45;;;36.60;33.00;;;;;;5083119;28;27575;-57
2021/07/29 09:39:59;;;;;;;3.50;2.65;;;36.20;33.50;;;;;;5068428;28;27474;-56
2021/07/29 09:42:44;;;;;;;3.38;2.85;;;35.70;34.00;;;;;;5082774;28;27451;-56
2021/07/29 09:45:31;;;;;;;3.13;2.65;;;35.40;34.20;;;;;;5064967;28;27476;-56
2021/07/29 09:48:18;;;;;;;2.70;2.22;;;35.60;34.40;;;;;;5066635;28;27431;-53
2021/07/29 09:51:03;;;;;;;5.50;3.03;;;36.00;34.40;;;;;;5083000;28;27445;-55
2021/07/29 09:53:48;;;;;;;2.95;2.63;;;36.70;33.80;;;;;;5065779;28;27325;-56
2021/07/29 09:56:32;;;;;;;4.07;2.72;;;37.40;34.00;;;;;;5082750;28;27500;-57
2021/07/29 09:59:17;;;;;;;4.03;2.58;;;38.20;32.50;;;;;;5068645;28;27410;-57
2021/07/29 10:02:02;;;;;;;3.38;2.47;;;38.40;30.80;;;;;;5114859;27;27488;-57
2021/07/29 10:04:48;;;;;;;3.22;2.60;;;38.50;31.30;;;;;;5171705;27;27342;-56
2021/07/29 10:07:35;;;;;;;3.28;2.53;;;38.90;31.00;;;;;;5154339;27;27394;-57
2021/07/29 10:10:21;;;;;;;5.45;2.88;;;39.30;30.10;;;;;;5158044;27;27344;-57
2021/07/29 10:13:05;;;;;;;4.65;2.90;;;39.80;30.40;;;;;;5172603;27;27392;-58
2021/07/29 10:15:50;;;;;;;5.45;2.50;;;40.30;29.90;;;;;;5187939;27;27852;-50
2021/07/29 10:19:01;;;;;;;4.03;2.60;;;40.90;29.90;;;;;;5172623;27;27427;-57
2021/07/29 10:21:47;;;;;;;3.05;2.30;;;41.60;28.90;;;;;;5169340;27;27443;-57
2021/07/29 10:24:53;;;;;;;3.03;2.72;;;42.10;28.30;;;;;;5154218;27;27336;-56
2021/07/29 10:27:38;;;;;;;6.13;3.38;;;42.40;27.20;;;;;;5187057;27;27339;-58
2021/07/29 10:30:26;;;;;;;5.88;3.00;;;41.60;23.60;;;;;;5187674;27;27336;-58
2021/07/29 10:33:17;;;;;;;3.85;2.65;;;41.00;25.30;;;;;;5169377;27;27317;-58
2021/07/29 10:36:03;;;;;;;4.82;2.50;;;40.40;26.20;;;;;;5172246;27;27390;-58
2021/07/29 10:38:51;;;;;;;6.05;2.75;;;39.80;27.20;;;;;;5187416;27;27827;-57
2021/07/29 10:41:39;;;;;;;5.95;2.80;;;39.30;27.60;;;;;;5187517;27;27525;-58
2021/07/29 10:44:36;;;;;;;3.85;2.42;;;38.90;28.20;;;;;;5153594;27;27444;-57
2021/07/29 10:47:35;;;;;;;3.47;2.95;;;38.60;28.60;;;;;;5187218;27;27411;-56
2021/07/29 10:50:20;;;;;;;3.20;2.30;;;38.50;29.10;;;;;;5187102;27;27380;-58
2021/07/29 10:53:05;;;;;;;6.13;2.47;;;38.40;29.70;;;;;;5168715;27;27335;-57
2021/07/29 10:55:50;;;;;;;2.78;2.28;;;38.60;29.60;;;;;;5187124;27;27340;-58
2021/07/29 10:58:44;;;;;;;4.53;3.33;;;38.90;29.00;;;;;;5153498;27;27342;-57
2021/07/29 11:01:49;;;;;;;4.57;2.97;;;39.40;29.20;;;;;;5170409;27;27417;-58
2021/07/29 11:04:53;;;;;;;3.80;2.88;;;39.80;28.30;;;;;;5186958;27;27394;-57
2021/07/29 11:07:44;;;;;;;3.05;2.67;;;39.80;28.20;;;;;;5186938;27;27323;-51
2021/07/29 11:10:29;;;;;;;3.30;2.78;;;39.70;28.20;;;;;;5141282;27;27410;-57
2021/07/29 11:13:14;;;;;;;2.70;2.50;;;39.70;28.30;;;;;;5188383;27;27472;-58
2021/07/29 11:16:01;;;;;;;5.57;2.90;;;39.50;28.80;;;;;;5190714;27;27409;-58
2021/07/29 11:19:06;;;;;;;3.40;3.00;;;39.20;28.80;;;;;;5190761;27;26927;-58
2021/07/29 11:22:07;;;;;;;5.53;2.80;;;38.90;28.90;;;;;;5190349;27;27471;-59
2021/07/29 11:24:51;;;;;;;7.50;3.53;;;38.90;29.20;;;;;;5190141;27;27349;-58
2021/07/29 11:27:36;;;;;;;7.93;3.40;;;39.10;28.80;;;;;;5189605;27;27399;-58
2021/07/29 11:30:21;;;;;;;6.93;3.35;;;39.10;28.60;;;;;;5174908;27;27604;-57
2021/07/29 11:33:07;;;;;;;4.57;2.88;;;39.30;28.40;;;;;;5190445;27;27508;-57
2021/07/29 11:35:52;;;;;;;4.88;3.08;;;39.60;28.80;;;;;;5160304;27;27385;-58
2021/07/29 11:38:39;;;;;;;4.38;3.35;;;40.10;28.00;;;;;;5174184;27;27463;-58
2021/07/29 11:41:24;;;;;;;11.18;3.20;;;40.40;27.40;;;;;;5175025;27;26917;-58
2021/07/29 11:44:09;;;;;;;5.82;3.00;;;40.70;27.50;;;;;;5190172;27;27406;-58
2021/07/29 11:46:57;;;;;;;9.20;3.25;;;41.00;27.00;;;;;;5189958;27;27465;-58
2021/07/29 11:49:49;;;;;;;3.92;3.03;;;41.10;26.90;;;;;;5174028;27;27378;-59
2021/07/29 11:52:34;;;;;;;4.93;3.20;;;41.20;26.70;;;;;;5189776;27;27468;-59
2021/07/29 11:55:21;;;;;;;2.88;2.63;;;41.60;27.00;;;;;;5189794;27;27413;-58
2021/07/29 11:58:15;;;;;;;4.05;3.00;;;42.00;26.00;;;;;;5186416;27;27941;-58
2021/07/29 12:01:12;;;;;;;3.15;2.50;;;42.40;25.70;;;;;;5174824;27;27469;-58
2021/07/29 12:04:00;;;;;;;4.18;3.17;;;42.90;26.00;;;;;;5175418;27;27410;-58
2021/07/29 12:06:45;;;;;;;3.20;2.78;;;43.60;25.50;;;;;;5174166;27;27413;-58
2021/07/29 12:09:34;;;;;;;3.08;2.78;;;44.10;24.80;;;;;;5189304;27;27402;-59
2021/07/29 12:12:19;;;;;;;3.15;2.78;;;44.50;24.10;;;;;;5189408;27;27433;-59
2021/07/29 12:15:05;;;;;;;5.00;2.95;;;44.90;23.00;;;;;;5189729;27;27422;-59
2021/07/29 12:17:50;;;;;;;4.55;2.50;;;45.20;23.40;;;;;;5189713;27;27515;-58
2021/07/29 12:20:45;;;;;;;4.55;2.80;;;45.50;23.30;;;;;;5189351;27;27458;-58
2021/07/29 12:23:30;;;;;;;3.38;2.60;;;46.00;23.10;;;;;;5172850;27;27445;-59
2021/07/29 12:26:15;;;;;;;2.55;2.35;;;46.20;22.50;;;;;;5188440;27;27415;-59
2021/07/29 12:29:00;;;;;;;3.28;2.92;;;46.50;21.60;;;;;;5173069;27;27442;-59
2021/07/29 12:31:45;;;;;;;2.75;2.55;;;46.80;22.30;;;;;;5173558;27;27816;-59
2021/07/29 12:34:34;;;;;;;4.38;2.70;;;46.90;21.80;;;;;;5188974;27;27417;-59
2021/07/29 12:37:37;;;;;;;2.80;2.60;;;46.60;22.10;;;;;;5189073;27;27385;-57
2021/07/29 12:40:26;;;;;;;4.32;2.88;;;46.10;22.10;;;;;;5173651;27;27420;-58
2021/07/29 12:43:22;;;;;;;3.45;2.10;;;45.60;22.70;;;;;;5188957;27;27335;-59
2021/07/29 12:46:08;;;;;;;6.05;2.58;;;45.40;22.50;;;;;;5188971;27;27425;-59
2021/07/29 12:48:56;;;;;;;2.40;2.20;;;45.40;22.70;;;;;;5189084;27;27467;-59
2021/07/29 12:51:51;;;;;;;4.25;2.75;;;45.40;23.10;;;;;;5188635;27;27405;-59
2021/07/29 12:55:13;;;;;;;3.35;2.58;;;45.20;22.70;;;;;;5188914;27;27948;-59
2021/07/29 12:57:58;;;;;;;3.78;2.90;;;45.30;22.90;;;;;;5188762;27;27410;-59
2021/07/29 13:00:44;;;;;;;4.55;2.90;;;45.50;23.00;;;;;;5170076;27;27415;-58
2021/07/29 13:03:34;;;;;;;3.83;2.80;;;45.70;23.00;;;;;;5173158;27;26919;-59
2021/07/29 13:06:20;;;;;;;3.45;2.53;;;45.70;22.20;;;;;;5188418;27;27385;-58
2021/07/29 13:09:04;;;;;;;4.35;2.67;;;46.00;22.20;;;;;;5188840;27;27380;-59
2021/07/29 13:11:53;;;;;;;5.45;3.10;;;46.20;22.50;;;;;;5173046;27;27364;-59
2021/07/29 13:14:38;;;;;;;4.47;2.75;;;46.40;21.90;;;;;;5188828;27;27463;-59
2021/07/29 13:17:23;;;;;;;5.03;2.90;;;46.20;22.00;;;;;;5188779;27;27457;-59
2021/07/29 13:20:08;;;;;;;7.53;2.72;;;46.00;21.60;;;;;;5172461;27;27395;-59
2021/07/29 13:22:53;;;;;;;6.28;2.90;;;45.90;22.00;;;;;;5188617;27;27394;-58
2021/07/29 13:25:38;;;;;;;4.45;2.90;;;46.00;22.60;;;;;;5188468;27;27411;-59
2021/07/29 13:28:24;;;;;;;5.10;3.28;;;46.00;22.00;;;;;;5187966;27;27433;-59
2021/07/29 13:31:09;;;;;;;6.25;2.92;;;46.20;22.40;;;;;;5172661;27;27442;-59
2021/07/29 13:33:54;;;;;;;4.28;3.08;;;46.20;21.80;;;;;;5188279;27;27474;-59
2021/07/29 13:36:39;;;;;;;3.45;2.70;;;46.20;21.70;;;;;;5186752;27;27410;-59
2021/07/29 13:39:24;;;;;;;6.88;2.60;;;46.20;21.80;;;;;;5188367;27;27448;-58
2021/07/29 13:42:09;;;;;;;2.88;2.58;;;45.90;21.70;;;;;;5172699;27;27482;-57
2021/07/29 13:45:15;;;;;;;2.65;2.40;;;45.60;21.50;;;;;;5188348;27;27540;-59
2021/07/29 13:48:00;;;;;;;3.35;2.40;;;45.20;22.00;;;;;;5175249;27;27415;-58
2021/07/29 13:50:49;;;;;;;4.85;3.03;;;44.90;22.60;;;;;;5172331;27;27457;-59
2021/07/29 13:53:33;;;;;;;2.60;2.17;;;44.90;22.60;;;;;;5188130;27;27315;-58
2021/07/29 13:56:18;;;;;;;3.80;2.70;;;44.90;22.10;;;;;;5187702;27;27553;-58
2021/07/29 13:59:04;;;;;;;2.78;2.58;;;44.90;22.30;;;;;;5172220;27;27327;-58
2021/07/29 14:01:49;;;;;;;2.90;2.60;;;44.70;22.10;;;;;;5187705;27;27855;-59
2021/07/29 14:04:34;;;;;;;3.17;2.45;;;44.40;22.50;;;;;;5168473;27;27459;-59
2021/07/29 14:07:19;;;;;;;4.20;2.42;;;44.00;23.20;;;;;;5168958;27;27333;-57
2021/07/29 14:10:05;;;;;;;3.05;2.72;;;43.90;23.60;;;;;;5188015;27;27444;-59
2021/07/29 14:12:51;;;;;;;4.80;2.88;;;43.70;23.40;;;;;;5187382;27;27389;-56
2021/07/29 14:15:36;;;;;;;2.92;2.55;;;43.60;23.70;;;;;;5187815;27;27353;-59
2021/07/29 14:18:21;;;;;;;3.50;2.42;;;43.60;23.70;;;;;;5187447;27;27335;-58
2021/07/29 14:21:08;;;;;;;5.43;3.05;;;43.70;23.80;;;;;;5187752;27;27317;-58
2021/07/29 14:23:52;;;;;;;7.38;2.72;;;43.80;23.70;;;;;;5187448;27;27476;-57